Time;durP1;ratioP1;P1;durP2;ratioP2;P2;SDS_P1;SDS_P2;PMS_P1;PMS_P2;Temp;Humidity;BMP_temperature;BMP_pressure;BME280_temperature;BME280_humidity;BME280_pressure;Samples;Min_cycle;Max_cycle;Signal;HPM_P1;HPM_P2
2023/02/05 00:01:39;;;;;;;0.90;0.90;;;;;;;;;;5053169;28;20194;-86
2023/02/05 00:04:07;;;;;;;1.23;1.08;;;;;;;;;;5052626;28;20279;-86
2023/02/05 00:06:36;;;;;;;1.35;0.90;;;;;;;;;;5052883;28;20198;-86
2023/02/05 00:09:04;;;;;;;0.80;0.80;;;;;;;;;;5052916;28;20289;-86
2023/02/05 00:11:31;;;;;;;0.90;0.90;;;;;;;;;;5052798;28;20232;-86
2023/02/05 00:13:59;;;;;;;1.25;1.17;;;;;;;;;;5052705;28;20702;-86
2023/02/05 00:16:26;;;;;;;2.22;0.95;;;;;;;;;;5054587;28;20727;-86
2023/02/05 00:18:54;;;;;;;1.30;1.20;;;;;;;;;;5054182;28;20672;-87
2023/02/05 00:21:23;;;;;;;1.17;1.15;;;;;;;;;;5054594;28;20309;-87
2023/02/05 00:23:53;;;;;;;1.20;1.10;;;;;;;;;;5054589;28;20705;-86
2023/02/05 00:26:20;;;;;;;1.10;1.10;;;;;;;;;;5054609;28;20240;-87
2023/02/05 00:28:48;;;;;;;1.45;1.38;;;;;;;;;;5054130;28;20293;-86
2023/02/05 00:31:18;;;;;;;1.27;1.17;;;;;;;;;;5054404;28;20257;-86
2023/02/05 00:33:47;;;;;;;3.28;2.60;;;;;;;;;;5054610;28;20556;-86
2023/02/05 00:36:15;;;;;;;2.53;2.08;;;;;;;;;;5054738;28;20202;-87
2023/02/05 00:38:43;;;;;;;1.83;1.63;;;;;;;;;;5054036;28;20228;-86
2023/02/05 00:41:12;;;;;;;2.88;2.03;;;;;;;;;;5060407;28;20252;-87
2023/02/05 00:43:40;;;;;;;1.85;1.75;;;;;;;;;;5074156;28;20280;-87
2023/02/05 00:46:09;;;;;;;1.73;1.63;;;;;;;;;;5074045;28;20315;-87
2023/02/05 00:48:36;;;;;;;1.75;1.65;;;;;;;;;;5073709;28;20201;-87
2023/02/05 00:51:04;;;;;;;1.67;1.58;;;;;;;;;;5074038;28;20312;-87
2023/02/05 00:53:32;;;;;;;1.60;1.50;;;;;;;;;;5074294;28;20204;-86
2023/02/05 00:55:59;;;;;;;1.70;1.60;;;;;;;;;;5074096;28;20204;-87
2023/02/05 00:58:28;;;;;;;1.73;1.60;;;;;;;;;;5073693;28;20284;-87
2023/02/05 01:00:58;;;;;;;1.88;1.70;;;;;;;;;;5073943;28;20362;-87
2023/02/05 01:03:26;;;;;;;1.77;1.67;;;;;;;;;;5073692;28;20207;-85
2023/02/05 01:05:54;;;;;;;1.48;1.38;;;;;;;;;;5073387;28;20236;-85
2023/02/05 01:08:21;;;;;;;1.38;1.30;;;;;;;;;;5073686;28;20295;-87
2023/02/05 01:10:51;;;;;;;1.75;1.65;;;;;;;;;;5073485;28;20264;-87
2023/02/05 01:13:19;;;;;;;1.60;1.40;;;;;;;;;;5073932;28;20597;-87
2023/02/05 01:15:48;;;;;;;1.48;1.38;;;;;;;;;;5073869;28;20379;-87
2023/02/05 01:18:15;;;;;;;1.63;1.52;;;;;;;;;;5073701;28;20197;-86
2023/02/05 01:20:44;;;;;;;1.40;1.30;;;;;;;;;;5073200;28;20243;-87
2023/02/05 01:23:11;;;;;;;1.52;1.30;;;;;;;;;;5073422;28;20296;-87
2023/02/05 01:25:39;;;;;;;1.70;1.60;;;;;;;;;;5073414;28;20227;-86
2023/02/05 01:28:07;;;;;;;1.65;1.55;;;;;;;;;;5073029;28;20208;-87
2023/02/05 01:30:35;;;;;;;1.67;1.40;;;;;;;;;;5073152;28;20304;-86
2023/02/05 01:33:04;;;;;;;1.83;1.30;;;;;;;;;;5073410;28;20573;-86
2023/02/05 01:35:32;;;;;;;1.50;1.40;;;;;;;;;;5073343;28;20572;-87
2023/02/05 01:38:00;;;;;;;1.52;1.42;;;;;;;;;;5073469;28;20574;-87
2023/02/05 01:40:27;;;;;;;1.80;1.63;;;;;;;;;;5072994;28;20219;-87
2023/02/05 01:42:55;;;;;;;1.58;1.48;;;;;;;;;;5073150;28;20233;-86
2023/02/05 01:46:14;;;;;;;1.75;1.33;;;;;;;;;;5073082;28;20308;-87
2023/02/05 01:48:46;;;;;;;1.38;1.23;;;;;;;;;;5064481;28;20685;-87
2023/02/05 01:51:15;;;;;;;2.55;1.83;;;;;;;;;;5073172;28;20232;-87
2023/02/05 01:53:44;;;;;;;2.78;1.60;;;;;;;;;;5073028;28;20197;-86
2023/02/05 01:56:15;;;;;;;1.40;1.30;;;;;;;;;;5073001;28;20239;-86
2023/02/05 01:58:48;;;;;;;1.33;1.23;;;;;;;;;;5072246;28;20283;-87
2023/02/05 02:01:16;;;;;;;1.35;1.25;;;;;;;;;;5072943;28;20660;-87
2023/02/05 02:03:45;;;;;;;1.58;1.48;;;;;;;;;;5072924;28;20295;-86
2023/02/05 02:06:13;;;;;;;1.40;1.30;;;;;;;;;;5072992;28;20221;-87
2023/02/05 02:08:40;;;;;;;1.42;1.33;;;;;;;;;;5072458;28;20236;-87
2023/02/05 02:11:10;;;;;;;1.52;1.27;;;;;;;;;;5072656;28;20229;-86
2023/02/05 02:13:38;;;;;;;2.45;1.77;;;;;;;;;;5072792;28;20571;-87
2023/02/05 02:16:06;;;;;;;2.10;1.90;;;;;;;;;;5072306;28;20288;-87
2023/02/05 02:18:35;;;;;;;1.80;1.70;;;;;;;;;;5072493;28;20201;-86
2023/02/05 02:21:36;;;;;;;1.60;1.50;;;;;;;;;;5072539;28;20315;-87
2023/02/05 02:24:34;;;;;;;1.40;1.30;;;;;;;;;;5072208;28;20188;-87
2023/02/05 02:27:36;;;;;;;1.70;1.60;;;;;;;;;;5046368;28;20278;-85
2023/02/05 02:30:12;;;;;;;1.60;1.50;;;;;;;;;;5072090;28;20316;-86
2023/02/05 02:32:42;;;;;;;1.90;1.80;;;;;;;;;;5071999;28;20208;-86
2023/02/05 02:35:14;;;;;;;1.92;1.30;;;;;;;;;;5072500;28;20224;-86
2023/02/05 02:37:48;;;;;;;2.22;1.75;;;;;;;;;;5072139;28;20201;-86
2023/02/05 02:40:20;;;;;;;1.63;1.52;;;;;;;;;;5071558;28;20221;-87
2023/02/05 02:42:52;;;;;;;1.73;1.63;;;;;;;;;;5072216;28;20208;-87
2023/02/05 02:45:22;;;;;;;1.67;1.58;;;;;;;;;;5072149;28;20191;-87
2023/02/05 02:47:54;;;;;;;1.77;1.67;;;;;;;;;;5071841;28;20296;-87
2023/02/05 02:50:31;;;;;;;2.10;1.65;;;;;;;;;;5072071;28;20227;-87
2023/02/05 02:53:03;;;;;;;1.92;1.42;;;;;;;;;;5071907;28;20215;-87
2023/02/05 02:55:37;;;;;;;2.10;1.90;;;;;;;;;;5072148;28;20185;-87
2023/02/05 02:58:06;;;;;;;1.30;1.20;;;;;;;;;;5071788;28;20796;-87
2023/02/05 03:00:35;;;;;;;1.40;1.30;;;;;;;;;;5071639;28;20575;-87
2023/02/05 03:03:07;;;;;;;1.70;1.60;;;;;;;;;;5071594;28;20211;-87
2023/02/05 03:05:35;;;;;;;1.35;1.30;;;;;;;;;;5072206;28;20194;-87
2023/02/05 03:08:07;;;;;;;2.92;1.70;;;;;;;;;;5071613;28;20312;-87
2023/02/05 03:10:41;;;;;;;2.47;1.20;;;;;;;;;;5071723;28;20598;-86
2023/02/05 03:13:10;;;;;;;1.40;1.30;;;;;;;;;;5071853;28;20627;-87
2023/02/05 03:15:39;;;;;;;1.35;1.25;;;;;;;;;;5071789;28;20200;-87
2023/02/05 03:18:06;;;;;;;1.73;1.25;;;;;;;;;;5071084;28;20680;-86
2023/02/05 03:20:39;;;;;;;1.60;1.50;;;;;;;;;;5071545;28;20238;-87
2023/02/05 03:23:06;;;;;;;1.77;1.60;;;;;;;;;;5071449;28;20344;-86
2023/02/05 03:25:34;;;;;;;1.50;1.40;;;;;;;;;;5071568;28;20201;-87
2023/02/05 03:28:01;;;;;;;1.70;1.30;;;;;;;;;;5071409;28;20311;-87
2023/02/05 03:30:33;;;;;;;1.52;1.42;;;;;;;;;;5071202;28;20320;-85
2023/02/05 03:33:12;;;;;;;1.60;1.25;;;;;;;;;;5071875;28;20192;-86
2023/02/05 03:35:44;;;;;;;2.00;1.40;;;;;;;;;;5071455;28;20185;-87
2023/02/05 03:38:36;;;;;;;1.33;1.30;;;;;;;;;;5071404;28;20188;-87
2023/02/05 03:41:14;;;;;;;1.15;1.15;;;;;;;;;;5071146;28;20309;-87
2023/02/05 03:43:52;;;;;;;1.40;1.30;;;;;;;;;;5071256;28;20191;-87
2023/02/05 03:46:28;;;;;;;1.48;1.38;;;;;;;;;;5071584;28;20189;-86
2023/02/05 03:49:06;;;;;;;1.45;1.35;;;;;;;;;;5071609;28;20231;-86
2023/02/05 03:51:40;;;;;;;2.65;2.28;;;;;;;;;;5074758;28;20185;-87
2023/02/05 03:54:16;;;;;;;1.25;1.20;;;;;;;;;;5075103;28;20193;-87
2023/02/05 03:56:52;;;;;;;1.42;1.20;;;;;;;;;;5075393;28;20177;-87
2023/02/05 03:59:20;;;;;;;1.45;1.35;;;;;;;;;;5075299;28;20279;-86
2023/02/05 04:01:48;;;;;;;1.55;1.30;;;;;;;;;;5075096;28;20204;-86
2023/02/05 04:04:17;;;;;;;1.20;1.10;;;;;;;;;;5075096;28;20292;-86
2023/02/05 04:06:46;;;;;;;1.35;1.25;;;;;;;;;;5075177;28;20307;-86
2023/02/05 04:09:14;;;;;;;1.30;1.20;;;;;;;;;;5074839;28;20277;-86
2023/02/05 04:11:41;;;;;;;1.20;1.20;;;;;;;;;;5075017;28;20196;-85
2023/02/05 04:14:08;;;;;;;1.65;1.50;;;;;;;;;;5074989;28;20284;-86
2023/02/05 04:16:36;;;;;;;1.92;1.83;;;;;;;;;;5074788;28;20643;-87
2023/02/05 04:19:04;;;;;;;2.00;1.90;;;;;;;;;;5074910;28;20209;-86
2023/02/05 04:21:32;;;;;;;2.53;2.38;;;;;;;;;;5074948;28;20608;-87
2023/02/05 04:24:00;;;;;;;2.30;2.10;;;;;;;;;;5074903;28;20285;-86
2023/02/05 04:26:27;;;;;;;2.40;2.20;;;;;;;;;;5074488;28;20834;-86
2023/02/05 04:28:55;;;;;;;2.30;2.20;;;;;;;;;;5074608;28;20738;-87
2023/02/05 04:31:22;;;;;;;2.60;2.28;;;;;;;;;;5074268;28;20279;-87
2023/02/05 04:33:50;;;;;;;5.15;3.00;;;;;;;;;;5074196;28;20201;-84
2023/02/05 04:36:17;;;;;;;3.13;2.83;;;;;;;;;;5074390;28;20247;-87
2023/02/05 04:38:46;;;;;;;2.00;1.90;;;;;;;;;;5074598;28;20618;-86
2023/02/05 04:41:13;;;;;;;2.45;2.25;;;;;;;;;;5074219;28;20252;-86
2023/02/05 04:43:41;;;;;;;2.08;1.92;;;;;;;;;;5074363;28;20634;-87
2023/02/05 04:46:10;;;;;;;2.42;2.22;;;;;;;;;;5074465;28;20285;-87
2023/02/05 04:48:38;;;;;;;2.15;1.83;;;;;;;;;;5074269;28;20229;-87
2023/02/05 04:51:11;;;;;;;2.00;1.77;;;;;;;;;;5074020;28;20580;-87
2023/02/05 04:53:39;;;;;;;2.30;2.13;;;;;;;;;;5074190;28;20572;-86
2023/02/05 04:56:10;;;;;;;2.17;1.92;;;;;;;;;;5074309;28;20220;-85
2023/02/05 04:58:38;;;;;;;1.90;1.80;;;;;;;;;;5074441;28;20218;-87
2023/02/05 05:01:09;;;;;;;2.40;2.20;;;;;;;;;;5073774;28;20304;-86
2023/02/05 05:03:37;;;;;;;2.42;2.25;;;;;;;;;;5073281;28;20280;-86
2023/02/05 05:06:05;;;;;;;2.13;2.00;;;;;;;;;;5074086;28;20669;-86
2023/02/05 05:08:33;;;;;;;2.38;2.17;;;;;;;;;;5074164;28;20231;-87
2023/02/05 05:11:06;;;;;;;2.55;2.17;;;;;;;;;;5073781;28;20303;-86
2023/02/05 05:13:35;;;;;;;1.67;1.58;;;;;;;;;;5073999;28;20194;-85
2023/02/05 05:16:03;;;;;;;3.25;2.00;;;;;;;;;;5073608;28;20259;-86
2023/02/05 05:18:31;;;;;;;2.40;2.20;;;;;;;;;;5073787;28;20673;-87
2023/02/05 05:20:58;;;;;;;2.33;2.05;;;;;;;;;;5073806;28;20311;-87
2023/02/05 05:23:26;;;;;;;2.30;2.10;;;;;;;;;;5073560;28;20633;-86
2023/02/05 05:25:53;;;;;;;2.67;2.30;;;;;;;;;;5073324;28;20193;-87
2023/02/05 05:28:21;;;;;;;3.42;2.53;;;;;;;;;;5073263;28;20317;-86
2023/02/05 05:30:50;;;;;;;1.48;1.38;;;;;;;;;;5073111;28;20645;-86
2023/02/05 05:33:18;;;;;;;2.47;2.25;;;;;;;;;;5073169;28;20224;-87
2023/02/05 05:35:46;;;;;;;3.55;3.25;;;;;;;;;;5073359;28;20661;-87
2023/02/05 05:38:14;;;;;;;2.28;2.08;;;;;;;;;;5073401;28;20313;-86
2023/02/05 05:46:13;;;;;;;1.80;1.70;;;;;;;;;;5073436;28;20197;-87
2023/02/05 05:48:41;;;;;;;2.45;2.22;;;;;;;;;;5072960;28;20221;-87
2023/02/05 05:51:08;;;;;;;2.00;1.80;;;;;;;;;;5073247;28;20229;-86
2023/02/05 05:53:36;;;;;;;2.17;2.03;;;;;;;;;;5073224;28;20707;-86
2023/02/05 05:56:03;;;;;;;1.70;1.60;;;;;;;;;;5073088;28;20625;-87
2023/02/05 05:58:31;;;;;;;1.77;1.67;;;;;;;;;;5073212;28;20951;-87
2023/02/05 06:00:58;;;;;;;2.10;2.00;;;;;;;;;;5072901;28;20251;-88
2023/02/05 06:03:27;;;;;;;1.77;1.67;;;;;;;;;;5072939;28;20228;-87
2023/02/05 06:05:55;;;;;;;1.95;1.75;;;;;;;;;;5073007;28;20248;-87
2023/02/05 06:08:22;;;;;;;2.13;2.00;;;;;;;;;;5072590;28;20231;-88
2023/02/05 06:10:50;;;;;;;1.70;1.60;;;;;;;;;;5072579;28;20788;-87
2023/02/05 06:13:17;;;;;;;1.80;1.70;;;;;;;;;;5072507;28;20207;-88
2023/02/05 06:15:46;;;;;;;1.75;1.65;;;;;;;;;;5073983;28;20298;-87
2023/02/05 06:18:13;;;;;;;2.08;1.77;;;;;;;;;;5073827;28;20347;-87
2023/02/05 06:20:42;;;;;;;1.70;1.60;;;;;;;;;;5073658;28;20244;-87
2023/02/05 06:23:10;;;;;;;1.90;1.80;;;;;;;;;;5073997;28;20208;-87
2023/02/05 06:25:37;;;;;;;2.42;2.22;;;;;;;;;;5074050;28;20681;-87
2023/02/05 06:28:05;;;;;;;2.00;1.90;;;;;;;;;;5073880;28;20311;-87
2023/02/05 06:30:32;;;;;;;1.42;1.33;;;;;;;;;;5073339;28;20316;-87
2023/02/05 06:33:00;;;;;;;1.60;1.50;;;;;;;;;;5073688;28;20201;-87
2023/02/05 06:35:27;;;;;;;1.90;1.80;;;;;;;;;;5073877;28;20201;-87
2023/02/05 06:37:56;;;;;;;2.10;2.00;;;;;;;;;;5073786;28;20210;-87
2023/02/05 06:40:24;;;;;;;2.45;2.10;;;;;;;;;;5073620;28;20685;-87
2023/02/05 06:42:53;;;;;;;1.50;1.40;;;;;;;;;;5073437;28;20196;-87
2023/02/05 06:45:20;;;;;;;1.98;1.83;;;;;;;;;;5073483;28;20295;-87
2023/02/05 06:47:48;;;;;;;1.98;1.88;;;;;;;;;;5073953;28;20705;-87
2023/02/05 06:50:16;;;;;;;2.28;1.95;;;;;;;;;;5073642;28;20472;-86
2023/02/05 06:52:43;;;;;;;3.55;2.10;;;;;;;;;;5073799;28;20287;-87
2023/02/05 06:55:12;;;;;;;2.15;1.95;;;;;;;;;;5073595;28;20197;-87
2023/02/05 06:57:39;;;;;;;2.55;2.00;;;;;;;;;;5073439;28;20224;-86
2023/02/05 07:00:09;;;;;;;1.75;1.65;;;;;;;;;;5073466;28;20263;-87
2023/02/05 07:02:37;;;;;;;2.28;2.08;;;;;;;;;;5074190;28;20705;-87
2023/02/05 07:05:05;;;;;;;3.55;3.22;;;;;;;;;;5073408;28;20629;-87
2023/02/05 07:07:33;;;;;;;2.65;2.45;;;;;;;;;;5073159;28;20721;-87
2023/02/05 07:10:01;;;;;;;2.20;2.00;;;;;;;;;;5073145;28;20220;-86
2023/02/05 07:12:29;;;;;;;2.58;2.38;;;;;;;;;;5073294;28;20649;-87
2023/02/05 07:14:57;;;;;;;1.77;1.67;;;;;;;;;;5073222;28;20229;-87
2023/02/05 07:17:24;;;;;;;1.98;1.88;;;;;;;;;;5073244;28;20229;-87
2023/02/05 07:19:52;;;;;;;1.73;1.63;;;;;;;;;;5073130;28;20221;-87
2023/02/05 07:22:19;;;;;;;2.22;2.03;;;;;;;;;;5073402;28;20675;-87
2023/02/05 07:24:47;;;;;;;2.60;2.40;;;;;;;;;;5072733;28;20239;-87
2023/02/05 07:27:14;;;;;;;2.38;2.17;;;;;;;;;;5073366;28;20737;-87
2023/02/05 07:29:43;;;;;;;2.40;2.20;;;;;;;;;;5073380;28;20235;-87
2023/02/05 07:32:11;;;;;;;2.42;2.22;;;;;;;;;;5073359;28;20291;-87
2023/02/05 07:34:39;;;;;;;2.03;1.88;;;;;;;;;;5073693;28;20207;-86
2023/02/05 07:37:06;;;;;;;2.60;2.40;;;;;;;;;;5073633;28;20562;-87
2023/02/05 07:39:34;;;;;;;2.20;2.00;;;;;;;;;;5073113;28;20217;-87
2023/02/05 07:42:01;;;;;;;3.05;2.65;;;;;;;;;;5073202;28;20232;-87
2023/02/05 07:44:29;;;;;;;3.00;2.72;;;;;;;;;;5073360;28;20684;-85
2023/02/05 07:46:58;;;;;;;3.20;2.08;;;;;;;;;;5072944;28;20641;-87
2023/02/05 07:49:26;;;;;;;2.47;2.15;;;;;;;;;;5071155;28;20319;-87
2023/02/05 07:51:53;;;;;;;3.25;2.90;;;;;;;;;;5071483;28;20201;-87
2023/02/05 07:54:21;;;;;;;2.85;2.50;;;;;;;;;;5071268;28;20303;-87
2023/02/05 07:56:48;;;;;;;2.28;2.17;;;;;;;;;;5071099;28;20232;-86
2023/02/05 07:59:16;;;;;;;2.30;2.10;;;;;;;;;;5070309;28;20573;-87
2023/02/05 08:01:43;;;;;;;2.88;2.47;;;;;;;;;;5071431;28;20721;-86
2023/02/05 08:04:12;;;;;;;2.28;2.15;;;;;;;;;;5070913;28;20236;-86
2023/02/05 08:06:40;;;;;;;2.13;1.92;;;;;;;;;;5071455;28;20347;-87
2023/02/05 08:09:07;;;;;;;2.60;2.15;;;;;;;;;;5070769;28;20316;-87
2023/02/05 08:11:34;;;;;;;2.40;2.20;;;;;;;;;;5071220;28;20575;-87
2023/02/05 08:14:02;;;;;;;2.33;2.13;;;;;;;;;;5071302;28;20680;-86
2023/02/05 08:16:29;;;;;;;3.15;2.88;;;;;;;;;;5069387;28;20244;-86
2023/02/05 08:18:57;;;;;;;2.30;2.10;;;;;;;;;;5070555;28;20272;-87
2023/02/05 08:21:26;;;;;;;2.28;2.08;;;;;;;;;;5070900;28;20221;-87
2023/02/05 08:23:56;;;;;;;3.22;2.50;;;;;;;;;;5070902;28;20280;-88
2023/02/05 08:26:23;;;;;;;3.25;3.03;;;;;;;;;;5070732;28;20204;-87
2023/02/05 08:28:51;;;;;;;2.78;2.15;;;;;;;;;;5068735;28;20659;-87
2023/02/05 08:31:19;;;;;;;2.03;1.92;;;;;;;;;;5071074;28;20221;-87
2023/02/05 08:33:49;;;;;;;2.72;2.53;;;;;;;;;;5072364;28;20231;-87
2023/02/05 08:36:17;;;;;;;3.05;2.85;;;;;;;;;;5072686;28;20197;-87
2023/02/05 08:38:46;;;;;;;3.72;2.45;;;;;;;;;;5075391;28;20240;-87
2023/02/05 08:41:14;;;;;;;2.35;2.15;;;;;;;;;;5075227;28;20335;-86
2023/02/05 08:43:43;;;;;;;2.50;2.30;;;;;;;;;;5075811;28;20231;-87
2023/02/05 08:46:12;;;;;;;2.95;2.25;;;;;;;;;;5075513;28;20448;-88
2023/02/05 08:48:40;;;;;;;2.53;2.33;;;;;;;;;;5075206;28;20228;-86
2023/02/05 08:51:10;;;;;;;3.28;2.88;;;;;;;;;;5075255;28;20224;-85
2023/02/05 08:53:39;;;;;;;2.55;2.30;;;;;;;;;;5075565;28;20182;-85
2023/02/05 08:56:09;;;;;;;2.97;2.53;;;;;;;;;;5075612;28;20759;-85
2023/02/05 08:58:37;;;;;;;3.40;3.00;;;;;;;;;;5075184;28;20192;-84
2023/02/05 09:01:06;;;;;;;4.57;3.08;;;;;;;;;;5074950;28;20779;-84
2023/02/05 09:03:34;;;;;;;3.75;3.45;;;;;;;;;;5075127;28;20731;-85
2023/02/05 09:06:05;;;;;;;2.90;2.70;;;;;;;;;;5074892;28;20231;-86
2023/02/05 09:08:32;;;;;;;3.67;3.38;;;;;;;;;;5074087;28;20546;-85
2023/02/05 09:11:00;;;;;;;2.88;2.67;;;;;;;;;;5073983;28;20227;-85
2023/02/05 09:13:29;;;;;;;2.92;2.70;;;;;;;;;;5073775;28;20309;-85
2023/02/05 09:15:56;;;;;;;2.85;2.65;;;;;;;;;;5073536;28;20189;-85
2023/02/05 09:18:24;;;;;;;3.35;3.05;;;;;;;;;;5073465;28;20284;-86
2023/02/05 09:20:53;;;;;;;3.85;3.47;;;;;;;;;;5073966;28;20221;-85
2023/02/05 09:23:20;;;;;;;2.88;2.67;;;;;;;;;;5074490;28;20274;-84
2023/02/05 09:25:48;;;;;;;3.60;3.22;;;;;;;;;;5074511;28;20358;-86
2023/02/05 09:28:16;;;;;;;5.03;4.53;;;;;;;;;;5072674;28;20287;-85
2023/02/05 09:30:46;;;;;;;4.00;3.45;;;;;;;;;;5074142;28;20319;-85
2023/02/05 09:33:14;;;;;;;3.38;3.08;;;;;;;;;;5070113;28;20269;-86
2023/02/05 09:35:42;;;;;;;2.90;2.40;;;;;;;;;;5054278;28;20733;-87
2023/02/05 09:38:11;;;;;;;2.53;2.33;;;;;;;;;;5053429;28;20297;-86
2023/02/05 09:40:44;;;;;;;3.03;2.60;;;;;;;;;;5055561;28;20671;-86
2023/02/05 09:43:26;;;;;;;1.92;1.80;;;;;;;;;;5074048;28;20269;-86
2023/02/05 09:45:59;;;;;;;1.90;1.80;;;;;;;;;;5074392;28;20272;-86
2023/02/05 09:48:48;;;;;;;2.55;2.35;;;;;;;;;;5072798;28;20184;-86
2023/02/05 09:51:20;;;;;;;2.55;2.35;;;;;;;;;;5073525;28;20332;-86
2023/02/05 09:53:53;;;;;;;3.50;3.20;;;;;;;;;;5073794;28;20205;-86
2023/02/05 09:56:21;;;;;;;3.88;3.47;;;;;;;;;;5073611;28;20640;-86
2023/02/05 09:58:51;;;;;;;4.45;3.78;;;;;;;;;;5073182;28;20205;-86
2023/02/05 10:01:35;;;;;;;3.50;3.20;;;;;;;;;;5073631;28;20625;-86
2023/02/05 10:04:04;;;;;;;2.97;2.67;;;;;;;;;;5073856;28;20558;-86
2023/02/05 10:07:18;;;;;;;3.65;3.35;;;;;;;;;;5073255;28;20758;-86
2023/02/05 10:10:22;;;;;;;2.85;2.65;;;;;;;;;;5072745;28;20259;-86
2023/02/05 10:13:16;;;;;;;2.30;2.20;;;;;;;;;;5038284;28;20296;-86
2023/02/05 10:16:13;;;;;;;2.65;2.45;;;;;;;;;;5071638;28;20209;-86
2023/02/05 10:18:56;;;;;;;3.00;2.80;;;;;;;;;;5072175;28;20204;-85
2023/02/05 10:21:41;;;;;;;2.80;2.60;;;;;;;;;;5072944;28;20227;-85
2023/02/05 10:24:29;;;;;;;2.50;2.30;;;;;;;;;;5072917;28;20196;-86
2023/02/05 10:27:04;;;;;;;2.50;2.30;;;;;;;;;;5072438;28;20279;-86
2023/02/05 10:29:38;;;;;;;2.50;2.30;;;;;;;;;;5071851;28;20214;-85
2023/02/05 10:32:20;;;;;;;3.03;2.83;;;;;;;;;;5072938;28;20224;-86
2023/02/05 10:34:58;;;;;;;2.75;2.50;;;;;;;;;;5072415;28;20282;-86
2023/02/05 10:37:42;;;;;;;3.70;2.85;;;;;;;;;;5072256;28;20189;-86
2023/02/05 10:40:15;;;;;;;3.20;2.90;;;;;;;;;;5071647;28;20217;-85
2023/02/05 10:42:46;;;;;;;3.17;2.95;;;;;;;;;;5072440;28;20240;-86
2023/02/05 10:45:17;;;;;;;2.78;2.33;;;;;;;;;;5071353;28;20223;-85
2023/02/05 10:48:02;;;;;;;2.75;2.55;;;;;;;;;;5072280;28;20186;-84
2023/02/05 10:50:47;;;;;;;3.33;3.03;;;;;;;;;;5071944;28;20256;-86
2023/02/05 10:53:19;;;;;;;3.10;2.67;;;;;;;;;;5072404;28;20632;-85
2023/02/05 10:55:47;;;;;;;3.75;2.15;;;;;;;;;;5073273;28;20185;-85
2023/02/05 10:58:34;;;;;;;3.13;2.80;;;;;;;;;;5072912;28;20232;-84
2023/02/05 11:01:02;;;;;;;3.13;2.88;;;;;;;;;;5071693;28;20223;-85
2023/02/05 11:03:29;;;;;;;2.60;2.40;;;;;;;;;;5072982;28;20632;-85
2023/02/05 11:05:58;;;;;;;2.88;2.67;;;;;;;;;;5072571;28;20666;-85
2023/02/05 11:08:38;;;;;;;4.28;3.20;;;;;;;;;;5073126;28;20207;-85
2023/02/05 11:11:06;;;;;;;4.07;3.75;;;;;;;;;;5072873;28;20677;-85
2023/02/05 11:13:39;;;;;;;2.50;2.30;;;;;;;;;;5072469;28;20236;-85
2023/02/05 11:16:09;;;;;;;2.63;2.42;;;;;;;;;;5072652;28;20550;-85
2023/02/05 11:18:41;;;;;;;2.95;2.67;;;;;;;;;;5072788;28;20204;-84
2023/02/05 11:21:10;;;;;;;2.83;2.63;;;;;;;;;;5071651;28;20748;-86
2023/02/05 11:23:39;;;;;;;2.33;2.13;;;;;;;;;;5071035;28;20227;-86
2023/02/05 11:26:18;;;;;;;2.30;2.10;;;;;;;;;;5071492;28;20274;-87
2023/02/05 11:28:46;;;;;;;2.13;2.03;;;;;;;;;;5071025;28;20224;-87
2023/02/05 11:31:26;;;;;;;2.72;2.40;;;;;;;;;;5070653;28;20279;-87
2023/02/05 11:34:13;;;;;;;2.30;2.10;;;;;;;;;;5071416;28;20238;-87
2023/02/05 11:36:51;;;;;;;2.40;2.30;;;;;;;;;;5071102;28;20638;-86
2023/02/05 11:39:30;;;;;;;3.00;2.80;;;;;;;;;;5071838;28;20687;-87
2023/02/05 11:41:58;;;;;;;4.75;3.25;;;;;;;;;;5071736;28;20189;-86
2023/02/05 11:44:28;;;;;;;3.15;2.80;;;;;;;;;;5071257;28;20205;-87
2023/02/05 11:46:58;;;;;;;3.15;2.85;;;;;;;;;;5071329;28;20229;-87
2023/02/05 11:49:29;;;;;;;2.95;2.75;;;;;;;;;;5071591;28;20231;-86
2023/02/05 11:51:58;;;;;;;4.38;3.67;;;;;;;;;;5071416;28;20305;-86
2023/02/05 11:54:30;;;;;;;4.68;4.28;;;;;;;;;;5071397;28;20200;-86
2023/02/05 11:57:07;;;;;;;3.35;3.05;;;;;;;;;;5071635;28;20189;-87
2023/02/05 11:59:36;;;;;;;3.60;3.30;;;;;;;;;;5071530;28;20610;-86
2023/02/05 12:02:33;;;;;;;4.20;3.83;;;;;;;;;;5071722;28;20297;-84
2023/02/05 12:05:10;;;;;;;4.70;4.30;;;;;;;;;;5071514;28;20211;-84
2023/02/05 12:07:49;;;;;;;3.63;3.33;;;;;;;;;;5071822;28;20185;-84
2023/02/05 12:10:18;;;;;;;4.50;4.10;;;;;;;;;;5071515;28;20265;-85
2023/02/05 12:12:58;;;;;;;3.47;3.17;;;;;;;;;;5075190;28;20307;-85
2023/02/05 12:15:29;;;;;;;4.35;3.95;;;;;;;;;;5074701;28;20639;-87
2023/02/05 12:18:07;;;;;;;3.40;3.10;;;;;;;;;;5074333;28;20201;-85
2023/02/05 12:20:40;;;;;;;4.85;3.65;;;;;;;;;;5074237;28;20212;-87
2023/02/05 12:23:28;;;;;;;3.92;3.63;;;;;;;;;;5074579;28;20281;-87
2023/02/05 12:26:14;;;;;;;3.63;3.35;;;;;;;;;;5074325;28;20211;-87
2023/02/05 12:28:50;;;;;;;3.88;3.58;;;;;;;;;;5074426;28;20181;-87
2023/02/05 12:31:24;;;;;;;3.63;3.33;;;;;;;;;;5073992;28;20242;-87
2023/02/05 12:34:12;;;;;;;3.88;3.58;;;;;;;;;;5074502;28;20227;-87
2023/02/05 12:36:52;;;;;;;3.33;3.05;;;;;;;;;;5074226;28;20803;-85
2023/02/05 12:39:43;;;;;;;3.47;3.17;;;;;;;;;;5071157;28;20185;-86
2023/02/05 12:42:30;;;;;;;3.85;3.55;;;;;;;;;;5059430;28;20651;-87
2023/02/05 12:45:25;;;;;;;4.40;3.95;;;;;;;;;;5054333;28;20186;-87
2023/02/05 12:48:07;;;;;;;3.10;2.90;;;;;;;;;;5053793;28;20205;-86
2023/02/05 12:51:03;;;;;;;2.78;2.58;;;;;;;;;;5053727;28;20214;-86
2023/02/05 12:53:48;;;;;;;3.58;3.28;;;;;;;;;;5053137;28;20304;-86
2023/02/05 12:56:58;;;;;;;3.40;3.10;;;;;;;;;;5053774;28;20202;-86
2023/02/05 12:59:36;;;;;;;2.53;2.33;;;;;;;;;;5031049;28;20313;-85
2023/02/05 13:02:17;;;;;;;2.53;2.30;;;;;;;;;;5051576;28;20206;-86
2023/02/05 13:04:48;;;;;;;2.58;2.42;;;;;;;;;;5053905;28;20330;-87
2023/02/05 13:07:29;;;;;;;2.90;2.70;;;;;;;;;;5053558;28;20289;-86
2023/02/05 13:10:00;;;;;;;3.88;3.58;;;;;;;;;;5053137;28;20214;-86
2023/02/05 13:12:37;;;;;;;3.38;3.10;;;;;;;;;;5070176;28;20223;-86
2023/02/05 13:15:15;;;;;;;3.95;3.58;;;;;;;;;;5072886;28;20280;-87
2023/02/05 13:17:57;;;;;;;4.00;3.70;;;;;;;;;;5073449;28;20205;-87
2023/02/05 13:28:45;;;;;;;5.05;4.53;;;;;;;;;;5072820;28;20230;-85
2023/02/05 13:31:21;;;;;;;4.90;4.45;;;;;;;;;;5073045;28;20232;-87
2023/02/05 13:33:49;;;;;;;4.80;4.40;;;;;;;;;;5073317;28;20208;-86
2023/02/05 13:37:19;;;;;;;6.93;6.22;;;;;;;;;;5073136;28;20965;-87
2023/02/05 13:40:24;;;;;;;4.72;4.32;;;;;;;;;;5027365;28;20717;-87
2023/02/05 13:43:34;;;;;;;4.43;4.13;;;;;;;;;;5052903;28;20184;-87
2023/02/05 13:46:34;;;;;;;6.22;5.72;;;;;;;;;;5018760;28;20713;-87
2023/02/05 13:50:03;;;;;;;7.10;6.40;;;;;;;;;;5026492;28;20212;-86
2023/02/05 13:53:12;;;;;;;6.03;5.00;;;;;;;;;;4991756;28;20316;-86
2023/02/05 13:56:03;;;;;;;4.55;4.13;;;;;;;;;;5051069;28;20825;-87
2023/02/05 13:58:33;;;;;;;4.88;4.43;;;;;;;;;;5052461;28;20188;-86
2023/02/05 14:01:02;;;;;;;3.75;3.45;;;;;;;;;;5052344;28;20217;-86
2023/02/05 14:03:37;;;;;;;4.25;3.85;;;;;;;;;;5052725;28;20228;-86
2023/02/05 14:06:20;;;;;;;5.47;4.97;;;;;;;;;;5052380;28;20272;-85
2023/02/05 14:08:49;;;;;;;6.30;5.70;;;;;;;;;;5052043;28;20609;-86
2023/02/05 14:11:18;;;;;;;6.43;5.82;;;;;;;;;;5059428;28;20231;-87
2023/02/05 14:14:26;;;;;;;6.20;5.47;;;;;;;;;;5072301;28;20658;-87
2023/02/05 14:16:54;;;;;;;7.30;6.60;;;;;;;;;;5071253;28;20205;-87
2023/02/05 14:19:26;;;;;;;7.47;6.68;;;;;;;;;;5071393;28;20756;-86
2023/02/05 14:22:06;;;;;;;6.00;5.40;;;;;;;;;;5071914;28;20205;-86
2023/02/05 14:24:46;;;;;;;6.78;6.10;;;;;;;;;;5072281;28;20752;-85
2023/02/05 14:27:51;;;;;;;8.25;6.97;;;;;;;;;;5072238;28;20298;-85
2023/02/05 14:30:47;;;;;;;9.38;7.47;;;;;;;;;;5071883;28;20264;-86
2023/02/05 14:33:37;;;;;;;7.80;6.82;;;;;;;;;;5074674;28;20745;-85
2023/02/05 14:36:32;;;;;;;6.55;5.95;;;;;;;;;;5073909;28;20647;-86
2023/02/05 14:39:06;;;;;;;8.25;7.07;;;;;;;;;;5072758;28;20193;-84
2023/02/05 14:41:50;;;;;;;6.15;5.57;;;;;;;;;;5073534;28;20208;-85
2023/02/05 14:44:21;;;;;;;9.85;8.02;;;;;;;;;;5073705;28;20234;-87
2023/02/05 14:47:01;;;;;;;7.20;6.50;;;;;;;;;;5073358;28;20232;-85
2023/02/05 14:49:36;;;;;;;7.18;6.47;;;;;;;;;;5071289;28;20710;-85
2023/02/05 14:52:15;;;;;;;7.38;6.68;;;;;;;;;;5073440;28;20217;-85
2023/02/05 14:54:47;;;;;;;7.35;6.65;;;;;;;;;;5072954;28;20267;-85
2023/02/05 14:57:21;;;;;;;8.35;7.50;;;;;;;;;;5073440;28;20196;-86
2023/02/05 14:59:55;;;;;;;6.40;5.75;;;;;;;;;;5072605;28;20252;-86
2023/02/05 15:02:53;;;;;;;6.72;6.03;;;;;;;;;;5071582;28;20204;-86
2023/02/05 15:05:27;;;;;;;8.15;7.35;;;;;;;;;;5073345;28;20265;-86
2023/02/05 15:08:11;;;;;;;10.00;7.90;;;;;;;;;;5072945;28;20216;-85
2023/02/05 15:10:47;;;;;;;9.82;8.85;;;;;;;;;;5071087;28;20224;-86
2023/02/05 15:13:17;;;;;;;7.93;7.13;;;;;;;;;;5052848;28;20225;-86
2023/02/05 15:16:20;;;;;;;7.78;6.97;;;;;;;;;;5053045;28;20292;-86
2023/02/05 15:18:49;;;;;;;8.23;7.13;;;;;;;;;;5051282;28;20296;-85
2023/02/05 15:21:25;;;;;;;8.05;6.55;;;;;;;;;;5053137;28;20216;-85
2023/02/05 15:24:00;;;;;;;8.30;7.50;;;;;;;;;;5053219;28;20193;-85
2023/02/05 15:26:36;;;;;;;6.30;5.70;;;;;;;;;;5053704;28;20265;-85
2023/02/05 15:29:10;;;;;;;9.77;8.25;;;;;;;;;;5052890;28;20197;-86
2023/02/05 15:31:44;;;;;;;8.23;7.43;;;;;;;;;;5053238;28;20586;-85
2023/02/05 15:34:32;;;;;;;11.48;10.38;;;;;;;;;;5052812;28;20225;-85